sensor_id;sensor_type;location;lat;lon;timestamp;P1;durP1;ratioP1;P2;durP2;ratioP2
16391;SDS011;8305;-33.882;151.134;2023-11-19T00:00:17;5.22;;;0.98;;
16391;SDS011;8305;-33.882;151.134;2023-11-19T00:02:48;7.25;;;1.10;;
16391;SDS011;8305;-33.882;151.134;2023-11-19T00:05:19;3.03;;;0.70;;
16391;SDS011;8305;-33.882;151.134;2023-11-19T00:07:52;4.20;;;0.80;;
16391;SDS011;8305;-33.882;151.134;2023-11-19T00:10:23;3.40;;;0.82;;
16391;SDS011;8305;-33.882;151.134;2023-11-19T00:12:54;3.72;;;0.90;;
16391;SDS011;8305;-33.882;151.134;2023-11-19T00:15:25;5.53;;;0.98;;
16391;SDS011;8305;-33.882;151.134;2023-11-19T00:17:56;3.40;;;0.80;;
16391;SDS011;8305;-33.882;151.134;2023-11-19T00:20:30;3.03;;;0.60;;
16391;SDS011;8305;-33.882;151.134;2023-11-19T00:23:03;3.67;;;0.80;;
16391;SDS011;8305;-33.882;151.134;2023-11-19T00:25:34;5.82;;;0.80;;
16391;SDS011;8305;-33.882;151.134;2023-11-19T00:28:06;6.97;;;1.60;;
16391;SDS011;8305;-33.882;151.134;2023-11-19T00:30:39;5.13;;;0.90;;
16391;SDS011;8305;-33.882;151.134;2023-11-19T00:33:10;5.50;;;0.98;;
16391;SDS011;8305;-33.882;151.134;2023-11-19T00:35:41;2.85;;;0.60;;
16391;SDS011;8305;-33.882;151.134;2023-11-19T00:38:14;5.47;;;0.93;;
16391;SDS011;8305;-33.882;151.134;2023-11-19T00:40:45;3.70;;;0.80;;
16391;SDS011;8305;-33.882;151.134;2023-11-19T00:43:16;4.25;;;0.82;;
16391;SDS011;8305;-33.882;151.134;2023-11-19T00:45:48;4.30;;;0.90;;
16391;SDS011;8305;-33.882;151.134;2023-11-19T00:48:19;6.47;;;1.08;;
16391;SDS011;8305;-33.882;151.134;2023-11-19T00:50:50;3.42;;;0.80;;
16391;SDS011;8305;-33.882;151.134;2023-11-19T00:53:23;4.55;;;0.80;;
16391;SDS011;8305;-33.882;151.134;2023-11-19T00:55:54;6.15;;;0.70;;
16391;SDS011;8305;-33.882;151.134;2023-11-19T00:58:25;3.63;;;0.90;;
16391;SDS011;8305;-33.882;151.134;2023-11-19T01:00:56;4.35;;;0.90;;
16391;SDS011;8305;-33.882;151.134;2023-11-19T01:03:27;2.88;;;0.80;;
16391;SDS011;8305;-33.882;151.134;2023-11-19T01:05:59;5.53;;;0.90;;
16391;SDS011;8305;-33.882;151.134;2023-11-19T01:08:32;5.90;;;1.02;;
16391;SDS011;8305;-33.882;151.134;2023-11-19T01:11:03;6.20;;;0.98;;
16391;SDS011;8305;-33.882;151.134;2023-11-19T01:13:34;6.35;;;1.10;;
16391;SDS011;8305;-33.882;151.134;2023-11-19T01:16:05;6.70;;;1.25;;
16391;SDS011;8305;-33.882;151.134;2023-11-19T01:18:37;4.97;;;1.00;;
16391;SDS011;8305;-33.882;151.134;2023-11-19T01:21:08;4.72;;;1.10;;
16391;SDS011;8305;-33.882;151.134;2023-11-19T01:23:41;6.57;;;1.00;;
16391;SDS011;8305;-33.882;151.134;2023-11-19T01:26:12;8.45;;;1.13;;
16391;SDS011;8305;-33.882;151.134;2023-11-19T01:28:43;7.03;;;1.05;;
16391;SDS011;8305;-33.882;151.134;2023-11-19T01:31:15;6.90;;;1.20;;
16391;SDS011;8305;-33.882;151.134;2023-11-19T01:33:46;5.82;;;0.88;;
16391;SDS011;8305;-33.882;151.134;2023-11-19T01:36:17;5.63;;;1.13;;
16391;SDS011;8305;-33.882;151.134;2023-11-19T01:38:50;4.30;;;1.00;;
16391;SDS011;8305;-33.882;151.134;2023-11-19T01:41:21;6.32;;;1.13;;
16391;SDS011;8305;-33.882;151.134;2023-11-19T01:43:52;4.32;;;1.05;;
16391;SDS011;8305;-33.882;151.134;2023-11-19T01:46:23;5.85;;;0.80;;
16391;SDS011;8305;-33.882;151.134;2023-11-19T01:48:54;4.93;;;0.82;;
16391;SDS011;8305;-33.882;151.134;2023-11-19T01:51:26;5.82;;;1.20;;
16391;SDS011;8305;-33.882;151.134;2023-11-19T01:53:59;6.50;;;1.00;;
16391;SDS011;8305;-33.882;151.134;2023-11-19T01:56:31;6.47;;;1.08;;
16391;SDS011;8305;-33.882;151.134;2023-11-19T01:59:03;4.60;;;1.15;;
16391;SDS011;8305;-33.882;151.134;2023-11-19T02:01:35;4.05;;;0.98;;
16391;SDS011;8305;-33.882;151.134;2023-11-19T02:04:07;6.88;;;1.10;;
16391;SDS011;8305;-33.882;151.134;2023-11-19T02:06:40;5.97;;;1.10;;
16391;SDS011;8305;-33.882;151.134;2023-11-19T02:09:14;5.47;;;1.10;;
16391;SDS011;8305;-33.882;151.134;2023-11-19T02:11:46;6.57;;;1.10;;
16391;SDS011;8305;-33.882;151.134;2023-11-19T02:14:18;6.65;;;1.00;;
16391;SDS011;8305;-33.882;151.134;2023-11-19T02:16:51;5.28;;;0.98;;
16391;SDS011;8305;-33.882;151.134;2023-11-19T02:19:22;6.97;;;1.15;;
16391;SDS011;8305;-33.882;151.134;2023-11-19T02:21:53;7.03;;;1.13;;
16391;SDS011;8305;-33.882;151.134;2023-11-19T02:24:26;11.90;;;1.35;;
16391;SDS011;8305;-33.882;151.134;2023-11-19T02:27:02;6.63;;;1.10;;
16391;SDS011;8305;-33.882;151.134;2023-11-19T02:29:38;5.38;;;0.95;;
16391;SDS011;8305;-33.882;151.134;2023-11-19T02:32:09;5.25;;;1.00;;
16391;SDS011;8305;-33.882;151.134;2023-11-19T02:34:42;3.72;;;0.90;;
16391;SDS011;8305;-33.882;151.134;2023-11-19T02:37:13;8.82;;;1.25;;
16391;SDS011;8305;-33.882;151.134;2023-11-19T02:39:45;4.47;;;1.00;;
16391;SDS011;8305;-33.882;151.134;2023-11-19T02:42:16;4.70;;;1.00;;
16391;SDS011;8305;-33.882;151.134;2023-11-19T02:44:52;5.05;;;1.10;;
16391;SDS011;8305;-33.882;151.134;2023-11-19T02:47:23;5.40;;;1.20;;
16391;SDS011;8305;-33.882;151.134;2023-11-19T02:49:56;7.22;;;1.02;;
16391;SDS011;8305;-33.882;151.134;2023-11-19T02:52:27;5.38;;;1.20;;
16391;SDS011;8305;-33.882;151.134;2023-11-19T02:55:03;6.55;;;1.30;;
16391;SDS011;8305;-33.882;151.134;2023-11-19T02:57:36;6.28;;;1.20;;
16391;SDS011;8305;-33.882;151.134;2023-11-19T03:00:15;9.38;;;1.20;;
16391;SDS011;8305;-33.882;151.134;2023-11-19T03:02:49;6.20;;;0.95;;
16391;SDS011;8305;-33.882;151.134;2023-11-19T03:05:25;6.43;;;1.40;;
16391;SDS011;8305;-33.882;151.134;2023-11-19T03:07:57;8.48;;;1.10;;
16391;SDS011;8305;-33.882;151.134;2023-11-19T03:10:29;5.78;;;1.35;;
16391;SDS011;8305;-33.882;151.134;2023-11-19T03:13:01;7.43;;;1.15;;
16391;SDS011;8305;-33.882;151.134;2023-11-19T03:15:34;7.30;;;1.25;;
16391;SDS011;8305;-33.882;151.134;2023-11-19T03:18:05;10.15;;;1.50;;
16391;SDS011;8305;-33.882;151.134;2023-11-19T03:20:36;10.45;;;1.50;;
16391;SDS011;8305;-33.882;151.134;2023-11-19T03:23:07;4.97;;;1.15;;
16391;SDS011;8305;-33.882;151.134;2023-11-19T03:25:38;5.85;;;1.20;;
16391;SDS011;8305;-33.882;151.134;2023-11-19T03:28:10;3.97;;;1.00;;
16391;SDS011;8305;-33.882;151.134;2023-11-19T03:30:45;8.02;;;0.93;;
16391;SDS011;8305;-33.882;151.134;2023-11-19T03:33:16;7.00;;;1.35;;
16391;SDS011;8305;-33.882;151.134;2023-11-19T03:35:52;7.32;;;1.25;;
16391;SDS011;8305;-33.882;151.134;2023-11-19T03:38:23;6.10;;;1.00;;
16391;SDS011;8305;-33.882;151.134;2023-11-19T03:40:54;9.50;;;1.20;;
16391;SDS011;8305;-33.882;151.134;2023-11-19T03:43:25;5.90;;;1.30;;
16391;SDS011;8305;-33.882;151.134;2023-11-19T03:45:58;8.75;;;1.20;;
16391;SDS011;8305;-33.882;151.134;2023-11-19T03:48:31;5.50;;;1.20;;
16391;SDS011;8305;-33.882;151.134;2023-11-19T03:51:06;10.65;;;1.58;;
16391;SDS011;8305;-33.882;151.134;2023-11-19T03:53:41;8.25;;;1.23;;
16391;SDS011;8305;-33.882;151.134;2023-11-19T03:56:13;5.40;;;1.00;;
16391;SDS011;8305;-33.882;151.134;2023-11-19T03:58:44;6.78;;;1.10;;
16391;SDS011;8305;-33.882;151.134;2023-11-19T04:01:16;9.45;;;1.15;;
16391;SDS011;8305;-33.882;151.134;2023-11-19T04:03:47;9.68;;;1.33;;
16391;SDS011;8305;-33.882;151.134;2023-11-19T04:06:18;5.18;;;1.00;;
16391;SDS011;8305;-33.882;151.134;2023-11-19T04:08:49;6.70;;;1.02;;
16391;SDS011;8305;-33.882;151.134;2023-11-19T04:11:20;9.00;;;1.30;;
16391;SDS011;8305;-33.882;151.134;2023-11-19T04:13:51;4.97;;;1.10;;
16391;SDS011;8305;-33.882;151.134;2023-11-19T04:16:27;6.95;;;1.20;;
16391;SDS011;8305;-33.882;151.134;2023-11-19T04:18:58;7.88;;;1.25;;
16391;SDS011;8305;-33.882;151.134;2023-11-19T04:21:29;6.20;;;1.20;;
16391;SDS011;8305;-33.882;151.134;2023-11-19T04:24:00;4.93;;;1.00;;
16391;SDS011;8305;-33.882;151.134;2023-11-19T04:26:31;8.38;;;1.35;;
16391;SDS011;8305;-33.882;151.134;2023-11-19T04:29:03;7.47;;;1.40;;
16391;SDS011;8305;-33.882;151.134;2023-11-19T04:31:36;6.95;;;1.10;;
16391;SDS011;8305;-33.882;151.134;2023-11-19T04:34:08;2.65;;;1.00;;
16391;SDS011;8305;-33.882;151.134;2023-11-19T04:36:42;5.95;;;0.85;;
16391;SDS011;8305;-33.882;151.134;2023-11-19T04:39:13;7.22;;;1.00;;
16391;SDS011;8305;-33.882;151.134;2023-11-19T04:41:48;5.47;;;0.93;;
16391;SDS011;8305;-33.882;151.134;2023-11-19T04:44:20;4.63;;;1.10;;
16391;SDS011;8305;-33.882;151.134;2023-11-19T04:46:56;7.70;;;1.27;;
16391;SDS011;8305;-33.882;151.134;2023-11-19T04:49:27;6.18;;;1.20;;
16391;SDS011;8305;-33.882;151.134;2023-11-19T04:51:58;4.93;;;1.00;;
16391;SDS011;8305;-33.882;151.134;2023-11-19T04:54:33;6.65;;;1.30;;
16391;SDS011;8305;-33.882;151.134;2023-11-19T04:57:04;7.68;;;1.40;;
16391;SDS011;8305;-33.882;151.134;2023-11-19T04:59:36;7.85;;;1.20;;
16391;SDS011;8305;-33.882;151.134;2023-11-19T05:02:22;9.05;;;1.63;;
16391;SDS011;8305;-33.882;151.134;2023-11-19T05:04:54;5.95;;;1.40;;
16391;SDS011;8305;-33.882;151.134;2023-11-19T05:07:24;10.80;;;1.13;;
16391;SDS011;8305;-33.882;151.134;2023-11-19T05:09:55;4.45;;;1.20;;
16391;SDS011;8305;-33.882;151.134;2023-11-19T05:12:27;6.85;;;1.40;;
16391;SDS011;8305;-33.882;151.134;2023-11-19T05:14:58;5.60;;;1.40;;
16391;SDS011;8305;-33.882;151.134;2023-11-19T05:17:30;7.85;;;1.00;;
16391;SDS011;8305;-33.882;151.134;2023-11-19T05:20:03;5.68;;;1.10;;
16391;SDS011;8305;-33.882;151.134;2023-11-19T05:22:42;6.50;;;1.00;;
16391;SDS011;8305;-33.882;151.134;2023-11-19T05:25:14;5.95;;;1.00;;
16391;SDS011;8305;-33.882;151.134;2023-11-19T05:27:46;6.88;;;1.10;;
16391;SDS011;8305;-33.882;151.134;2023-11-19T05:30:17;7.88;;;1.40;;
16391;SDS011;8305;-33.882;151.134;2023-11-19T05:32:53;5.63;;;1.50;;
16391;SDS011;8305;-33.882;151.134;2023-11-19T05:35:24;4.82;;;1.20;;
16391;SDS011;8305;-33.882;151.134;2023-11-19T05:37:55;5.35;;;1.60;;
16391;SDS011;8305;-33.882;151.134;2023-11-19T05:40:26;8.60;;;1.52;;
16391;SDS011;8305;-33.882;151.134;2023-11-19T05:42:56;7.75;;;1.10;;
16391;SDS011;8305;-33.882;151.134;2023-11-19T05:45:28;8.20;;;1.13;;
16391;SDS011;8305;-33.882;151.134;2023-11-19T05:48:01;7.38;;;1.17;;
16391;SDS011;8305;-33.882;151.134;2023-11-19T05:50:33;5.78;;;1.38;;
16391;SDS011;8305;-33.882;151.134;2023-11-19T05:53:04;7.43;;;1.30;;
16391;SDS011;8305;-33.882;151.134;2023-11-19T05:55:36;9.38;;;1.40;;
16391;SDS011;8305;-33.882;151.134;2023-11-19T05:58:14;6.63;;;1.35;;
16391;SDS011;8305;-33.882;151.134;2023-11-19T06:00:47;8.18;;;1.33;;
16391;SDS011;8305;-33.882;151.134;2023-11-19T06:03:20;6.43;;;1.00;;
16391;SDS011;8305;-33.882;151.134;2023-11-19T06:05:51;9.20;;;1.40;;
16391;SDS011;8305;-33.882;151.134;2023-11-19T06:08:22;8.43;;;1.38;;
16391;SDS011;8305;-33.882;151.134;2023-11-19T06:10:54;6.25;;;1.20;;
16391;SDS011;8305;-33.882;151.134;2023-11-19T06:13:25;5.95;;;1.00;;
16391;SDS011;8305;-33.882;151.134;2023-11-19T06:15:56;6.05;;;1.30;;
16391;SDS011;8305;-33.882;151.134;2023-11-19T06:18:30;8.43;;;1.60;;
16391;SDS011;8305;-33.882;151.134;2023-11-19T06:21:02;8.77;;;1.40;;
16391;SDS011;8305;-33.882;151.134;2023-11-19T06:23:36;8.63;;;1.60;;
16391;SDS011;8305;-33.882;151.134;2023-11-19T06:26:07;11.20;;;1.63;;
16391;SDS011;8305;-33.882;151.134;2023-11-19T06:28:38;9.13;;;1.30;;
16391;SDS011;8305;-33.882;151.134;2023-11-19T06:31:09;9.63;;;1.60;;
16391;SDS011;8305;-33.882;151.134;2023-11-19T06:33:44;9.45;;;1.65;;
16391;SDS011;8305;-33.882;151.134;2023-11-19T06:36:16;8.93;;;1.50;;
16391;SDS011;8305;-33.882;151.134;2023-11-19T06:38:49;7.45;;;1.30;;
16391;SDS011;8305;-33.882;151.134;2023-11-19T06:41:21;6.35;;;1.20;;
16391;SDS011;8305;-33.882;151.134;2023-11-19T06:43:52;7.57;;;1.20;;
16391;SDS011;8305;-33.882;151.134;2023-11-19T06:46:23;8.35;;;1.33;;
16391;SDS011;8305;-33.882;151.134;2023-11-19T06:48:59;10.20;;;1.25;;
16391;SDS011;8305;-33.882;151.134;2023-11-19T06:51:30;12.25;;;1.70;;
16391;SDS011;8305;-33.882;151.134;2023-11-19T06:54:01;10.77;;;1.52;;
16391;SDS011;8305;-33.882;151.134;2023-11-19T06:56:32;8.48;;;1.70;;
16391;SDS011;8305;-33.882;151.134;2023-11-19T06:59:03;9.32;;;1.73;;
16391;SDS011;8305;-33.882;151.134;2023-11-19T07:01:35;7.90;;;1.30;;
16391;SDS011;8305;-33.882;151.134;2023-11-19T07:04:08;10.25;;;1.77;;
16391;SDS011;8305;-33.882;151.134;2023-11-19T07:06:43;11.02;;;1.60;;
16391;SDS011;8305;-33.882;151.134;2023-11-19T07:09:14;6.88;;;1.42;;
16391;SDS011;8305;-33.882;151.134;2023-11-19T07:11:45;11.25;;;2.13;;
16391;SDS011;8305;-33.882;151.134;2023-11-19T07:14:16;7.90;;;1.65;;
16391;SDS011;8305;-33.882;151.134;2023-11-19T07:16:49;11.32;;;1.70;;
16391;SDS011;8305;-33.882;151.134;2023-11-19T07:19:23;7.05;;;1.38;;
16391;SDS011;8305;-33.882;151.134;2023-11-19T07:21:54;9.73;;;1.52;;
16391;SDS011;8305;-33.882;151.134;2023-11-19T07:24:25;11.07;;;1.80;;
16391;SDS011;8305;-33.882;151.134;2023-11-19T07:26:56;9.35;;;1.67;;
16391;SDS011;8305;-33.882;151.134;2023-11-19T07:29:29;10.75;;;1.80;;
16391;SDS011;8305;-33.882;151.134;2023-11-19T07:32:00;10.55;;;1.60;;
16391;SDS011;8305;-33.882;151.134;2023-11-19T07:34:34;7.30;;;1.67;;
16391;SDS011;8305;-33.882;151.134;2023-11-19T07:37:06;9.25;;;1.70;;
16391;SDS011;8305;-33.882;151.134;2023-11-19T07:39:37;8.90;;;1.50;;
16391;SDS011;8305;-33.882;151.134;2023-11-19T07:42:09;10.90;;;1.73;;
16391;SDS011;8305;-33.882;151.134;2023-11-19T07:44:40;10.85;;;1.80;;
16391;SDS011;8305;-33.882;151.134;2023-11-19T07:47:12;9.63;;;1.75;;
16391;SDS011;8305;-33.882;151.134;2023-11-19T07:49:46;11.45;;;2.08;;
16391;SDS011;8305;-33.882;151.134;2023-11-19T07:52:17;10.90;;;1.92;;
16391;SDS011;8305;-33.882;151.134;2023-11-19T07:54:48;9.30;;;1.58;;
16391;SDS011;8305;-33.882;151.134;2023-11-19T07:57:22;11.07;;;1.80;;
16391;SDS011;8305;-33.882;151.134;2023-11-19T07:59:56;11.70;;;1.83;;
16391;SDS011;8305;-33.882;151.134;2023-11-19T08:02:27;8.73;;;1.65;;
16391;SDS011;8305;-33.882;151.134;2023-11-19T08:05:01;14.35;;;1.98;;
16391;SDS011;8305;-33.882;151.134;2023-11-19T08:07:32;8.50;;;1.67;;
16391;SDS011;8305;-33.882;151.134;2023-11-19T08:10:05;9.20;;;1.80;;
16391;SDS011;8305;-33.882;151.134;2023-11-19T08:12:42;11.13;;;2.00;;
16391;SDS011;8305;-33.882;151.134;2023-11-19T08:15:13;12.80;;;2.00;;
16391;SDS011;8305;-33.882;151.134;2023-11-19T08:17:44;8.38;;;1.67;;
16391;SDS011;8305;-33.882;151.134;2023-11-19T08:20:20;11.45;;;1.90;;
16391;SDS011;8305;-33.882;151.134;2023-11-19T08:22:51;8.95;;;1.92;;
16391;SDS011;8305;-33.882;151.134;2023-11-19T08:25:22;10.70;;;1.63;;
16391;SDS011;8305;-33.882;151.134;2023-11-19T08:27:53;8.60;;;1.98;;
16391;SDS011;8305;-33.882;151.134;2023-11-19T08:30:24;9.50;;;2.05;;
16391;SDS011;8305;-33.882;151.134;2023-11-19T08:32:55;13.65;;;2.30;;
16391;SDS011;8305;-33.882;151.134;2023-11-19T08:35:31;10.60;;;2.05;;
16391;SDS011;8305;-33.882;151.134;2023-11-19T08:38:03;12.57;;;2.00;;
16391;SDS011;8305;-33.882;151.134;2023-11-19T08:40:34;10.73;;;2.00;;
16391;SDS011;8305;-33.882;151.134;2023-11-19T08:43:05;10.85;;;1.77;;
16391;SDS011;8305;-33.882;151.134;2023-11-19T08:45:37;8.20;;;1.80;;
16391;SDS011;8305;-33.882;151.134;2023-11-19T08:48:08;10.95;;;1.85;;
16391;SDS011;8305;-33.882;151.134;2023-11-19T08:50:40;9.40;;;1.85;;
16391;SDS011;8305;-33.882;151.134;2023-11-19T08:53:11;16.25;;;1.83;;
16391;SDS011;8305;-33.882;151.134;2023-11-19T08:55:42;11.15;;;2.25;;
16391;SDS011;8305;-33.882;151.134;2023-11-19T08:58:13;11.27;;;1.90;;
16391;SDS011;8305;-33.882;151.134;2023-11-19T09:00:44;16.73;;;2.20;;
16391;SDS011;8305;-33.882;151.134;2023-11-19T09:03:18;12.13;;;1.95;;
16391;SDS011;8305;-33.882;151.134;2023-11-19T09:05:51;12.40;;;2.00;;
16391;SDS011;8305;-33.882;151.134;2023-11-19T09:08:22;16.92;;;2.60;;
16391;SDS011;8305;-33.882;151.134;2023-11-19T09:10:53;8.43;;;1.95;;
16391;SDS011;8305;-33.882;151.134;2023-11-19T09:13:24;11.70;;;2.25;;
16391;SDS011;8305;-33.882;151.134;2023-11-19T09:15:55;12.88;;;1.75;;
16391;SDS011;8305;-33.882;151.134;2023-11-19T09:18:29;9.65;;;1.90;;
16391;SDS011;8305;-33.882;151.134;2023-11-19T09:21:03;16.05;;;2.13;;
16391;SDS011;8305;-33.882;151.134;2023-11-19T09:23:34;10.63;;;2.03;;
16391;SDS011;8305;-33.882;151.134;2023-11-19T09:26:05;17.25;;;2.10;;
16391;SDS011;8305;-33.882;151.134;2023-11-19T09:28:37;13.88;;;2.13;;
16391;SDS011;8305;-33.882;151.134;2023-11-19T09:31:14;12.45;;;1.83;;
16391;SDS011;8305;-33.882;151.134;2023-11-19T09:33:45;14.05;;;2.05;;
16391;SDS011;8305;-33.882;151.134;2023-11-19T09:36:18;13.65;;;1.88;;
16391;SDS011;8305;-33.882;151.134;2023-11-19T09:38:49;12.80;;;2.20;;
16391;SDS011;8305;-33.882;151.134;2023-11-19T09:41:20;11.20;;;1.90;;
16391;SDS011;8305;-33.882;151.134;2023-11-19T09:43:54;14.82;;;2.30;;
16391;SDS011;8305;-33.882;151.134;2023-11-19T09:46:25;12.70;;;1.83;;
16391;SDS011;8305;-33.882;151.134;2023-11-19T09:48:57;10.35;;;1.80;;
16391;SDS011;8305;-33.882;151.134;2023-11-19T09:51:32;11.88;;;2.10;;
16391;SDS011;8305;-33.882;151.134;2023-11-19T09:54:03;7.07;;;1.50;;
16391;SDS011;8305;-33.882;151.134;2023-11-19T09:56:34;11.43;;;1.77;;
16391;SDS011;8305;-33.882;151.134;2023-11-19T09:59:07;10.40;;;2.22;;
16391;SDS011;8305;-33.882;151.134;2023-11-19T10:01:39;11.95;;;2.00;;
16391;SDS011;8305;-33.882;151.134;2023-11-19T10:04:12;12.75;;;1.85;;
16391;SDS011;8305;-33.882;151.134;2023-11-19T10:06:51;14.80;;;2.17;;
16391;SDS011;8305;-33.882;151.134;2023-11-19T10:09:22;12.25;;;1.95;;
16391;SDS011;8305;-33.882;151.134;2023-11-19T10:11:53;13.27;;;2.10;;
16391;SDS011;8305;-33.882;151.134;2023-11-19T10:14:24;14.25;;;2.10;;
16391;SDS011;8305;-33.882;151.134;2023-11-19T10:16:56;13.70;;;2.00;;
16391;SDS011;8305;-33.882;151.134;2023-11-19T10:19:30;13.07;;;2.03;;
16391;SDS011;8305;-33.882;151.134;2023-11-19T10:22:05;12.35;;;2.10;;
16391;SDS011;8305;-33.882;151.134;2023-11-19T10:24:37;11.95;;;2.00;;
16391;SDS011;8305;-33.882;151.134;2023-11-19T10:27:08;11.93;;;2.22;;
16391;SDS011;8305;-33.882;151.134;2023-11-19T10:29:41;15.55;;;1.92;;
16391;SDS011;8305;-33.882;151.134;2023-11-19T10:32:15;13.00;;;2.15;;
16391;SDS011;8305;-33.882;151.134;2023-11-19T10:34:46;13.02;;;1.92;;
16391;SDS011;8305;-33.882;151.134;2023-11-19T10:40:04;17.65;;;2.47;;
16391;SDS011;8305;-33.882;151.134;2023-11-19T10:42:36;8.93;;;2.28;;
16391;SDS011;8305;-33.882;151.134;2023-11-19T10:45:21;17.45;;;2.22;;
16391;SDS011;8305;-33.882;151.134;2023-11-19T10:47:52;12.10;;;2.03;;
16391;SDS011;8305;-33.882;151.134;2023-11-19T10:50:25;14.25;;;2.08;;
16391;SDS011;8305;-33.882;151.134;2023-11-19T10:52:58;13.82;;;2.28;;
16391;SDS011;8305;-33.882;151.134;2023-11-19T10:55:30;9.52;;;1.75;;
16391;SDS011;8305;-33.882;151.134;2023-11-19T10:58:02;16.10;;;2.20;;
16391;SDS011;8305;-33.882;151.134;2023-11-19T11:00:36;19.10;;;2.65;;
16391;SDS011;8305;-33.882;151.134;2023-11-19T11:03:11;16.48;;;2.13;;
16391;SDS011;8305;-33.882;151.134;2023-11-19T11:05:46;13.93;;;2.05;;
16391;SDS011;8305;-33.882;151.134;2023-11-19T11:08:21;14.68;;;2.15;;
16391;SDS011;8305;-33.882;151.134;2023-11-19T11:10:53;12.05;;;2.20;;
16391;SDS011;8305;-33.882;151.134;2023-11-19T11:13:24;10.18;;;2.15;;
16391;SDS011;8305;-33.882;151.134;2023-11-19T11:15:56;15.32;;;2.10;;
16391;SDS011;8305;-33.882;151.134;2023-11-19T11:18:27;13.75;;;2.05;;
16391;SDS011;8305;-33.882;151.134;2023-11-19T11:20:59;17.95;;;2.85;;
16391;SDS011;8305;-33.882;151.134;2023-11-19T11:23:41;14.70;;;2.00;;
16391;SDS011;8305;-33.882;151.134;2023-11-19T11:26:48;11.23;;;2.00;;
16391;SDS011;8305;-33.882;151.134;2023-11-19T11:29:37;11.43;;;1.95;;
16391;SDS011;8305;-33.882;151.134;2023-11-19T11:32:14;9.38;;;1.80;;
16391;SDS011;8305;-33.882;151.134;2023-11-19T11:35:03;9.30;;;1.90;;
16391;SDS011;8305;-33.882;151.134;2023-11-19T11:37:49;10.75;;;1.70;;
16391;SDS011;8305;-33.882;151.134;2023-11-19T11:40:31;9.25;;;1.52;;
16391;SDS011;8305;-33.882;151.134;2023-11-19T11:43:03;13.75;;;2.50;;
16391;SDS011;8305;-33.882;151.134;2023-11-19T11:45:54;11.70;;;1.88;;
16391;SDS011;8305;-33.882;151.134;2023-11-19T11:48:28;8.80;;;1.80;;
16391;SDS011;8305;-33.882;151.134;2023-11-19T11:51:03;10.98;;;2.30;;
16391;SDS011;8305;-33.882;151.134;2023-11-19T11:53:34;16.88;;;2.30;;
16391;SDS011;8305;-33.882;151.134;2023-11-19T11:56:07;10.27;;;1.67;;
16391;SDS011;8305;-33.882;151.134;2023-11-19T11:58:39;10.70;;;1.90;;
16391;SDS011;8305;-33.882;151.134;2023-11-19T12:01:14;11.30;;;1.92;;
16391;SDS011;8305;-33.882;151.134;2023-11-19T12:03:48;9.77;;;1.73;;
16391;SDS011;8305;-33.882;151.134;2023-11-19T12:06:21;7.57;;;1.70;;
16391;SDS011;8305;-33.882;151.134;2023-11-19T12:08:52;10.35;;;1.60;;
16391;SDS011;8305;-33.882;151.134;2023-11-19T12:11:30;9.35;;;1.80;;
16391;SDS011;8305;-33.882;151.134;2023-11-19T12:14:03;7.40;;;1.70;;
16391;SDS011;8305;-33.882;151.134;2023-11-19T12:16:34;9.45;;;1.80;;
16391;SDS011;8305;-33.882;151.134;2023-11-19T12:19:05;14.52;;;2.00;;
16391;SDS011;8305;-33.882;151.134;2023-11-19T12:21:37;8.27;;;1.55;;
16391;SDS011;8305;-33.882;151.134;2023-11-19T12:24:08;8.32;;;1.45;;
16391;SDS011;8305;-33.882;151.134;2023-11-19T12:26:42;8.40;;;1.90;;
16391;SDS011;8305;-33.882;151.134;2023-11-19T12:29:16;8.32;;;1.70;;
16391;SDS011;8305;-33.882;151.134;2023-11-19T12:31:53;10.30;;;2.22;;
16391;SDS011;8305;-33.882;151.134;2023-11-19T12:34:29;11.95;;;2.10;;
16391;SDS011;8305;-33.882;151.134;2023-11-19T12:37:03;10.50;;;1.60;;
16391;SDS011;8305;-33.882;151.134;2023-11-19T12:39:36;6.47;;;1.65;;
16391;SDS011;8305;-33.882;151.134;2023-11-19T12:42:08;9.40;;;1.92;;
16391;SDS011;8305;-33.882;151.134;2023-11-19T12:44:51;7.72;;;1.50;;
16391;SDS011;8305;-33.882;151.134;2023-11-19T12:47:24;9.85;;;1.67;;
16391;SDS011;8305;-33.882;151.134;2023-11-19T12:49:56;11.85;;;2.00;;
16391;SDS011;8305;-33.882;151.134;2023-11-19T12:52:30;8.90;;;1.85;;
16391;SDS011;8305;-33.882;151.134;2023-11-19T12:55:01;7.93;;;1.70;;
16391;SDS011;8305;-33.882;151.134;2023-11-19T12:57:41;10.05;;;1.83;;
16391;SDS011;8305;-33.882;151.134;2023-11-19T13:00:18;12.35;;;2.00;;
16391;SDS011;8305;-33.882;151.134;2023-11-19T13:02:50;9.63;;;1.75;;
16391;SDS011;8305;-33.882;151.134;2023-11-19T13:05:23;9.60;;;2.00;;
16391;SDS011;8305;-33.882;151.134;2023-11-19T13:08:01;13.75;;;2.08;;
16391;SDS011;8305;-33.882;151.134;2023-11-19T13:10:33;10.35;;;1.85;;
16391;SDS011;8305;-33.882;151.134;2023-11-19T13:13:21;11.98;;;2.03;;
16391;SDS011;8305;-33.882;151.134;2023-11-19T13:15:52;16.17;;;2.60;;
16391;SDS011;8305;-33.882;151.134;2023-11-19T13:18:30;15.35;;;2.40;;
16391;SDS011;8305;-33.882;151.134;2023-11-19T13:21:00;12.77;;;2.10;;
16391;SDS011;8305;-33.882;151.134;2023-11-19T13:23:34;11.98;;;2.35;;
16391;SDS011;8305;-33.882;151.134;2023-11-19T13:26:05;13.95;;;2.38;;
16391;SDS011;8305;-33.882;151.134;2023-11-19T13:28:38;11.63;;;2.17;;
16391;SDS011;8305;-33.882;151.134;2023-11-19T13:31:10;16.23;;;2.60;;
16391;SDS011;8305;-33.882;151.134;2023-11-19T13:33:41;19.13;;;2.50;;
16391;SDS011;8305;-33.882;151.134;2023-11-19T13:36:12;18.95;;;2.88;;
16391;SDS011;8305;-33.882;151.134;2023-11-19T13:38:43;12.38;;;2.45;;
16391;SDS011;8305;-33.882;151.134;2023-11-19T13:41:14;14.32;;;2.13;;
16391;SDS011;8305;-33.882;151.134;2023-11-19T13:43:46;16.05;;;2.17;;
16391;SDS011;8305;-33.882;151.134;2023-11-19T13:46:17;14.48;;;2.33;;
16391;SDS011;8305;-33.882;151.134;2023-11-19T13:48:48;16.40;;;3.30;;
16391;SDS011;8305;-33.882;151.134;2023-11-19T13:51:19;12.15;;;2.30;;
16391;SDS011;8305;-33.882;151.134;2023-11-19T13:53:50;18.60;;;2.88;;
16391;SDS011;8305;-33.882;151.134;2023-11-19T13:56:21;14.82;;;2.47;;
16391;SDS011;8305;-33.882;151.134;2023-11-19T13:58:56;9.88;;;2.20;;
16391;SDS011;8305;-33.882;151.134;2023-11-19T14:01:27;10.55;;;2.28;;
16391;SDS011;8305;-33.882;151.134;2023-11-19T14:03:58;15.65;;;2.33;;
16391;SDS011;8305;-33.882;151.134;2023-11-19T14:06:28;13.32;;;2.10;;
16391;SDS011;8305;-33.882;151.134;2023-11-19T14:08:59;10.18;;;2.10;;
16391;SDS011;8305;-33.882;151.134;2023-11-19T14:11:32;15.13;;;2.72;;
16391;SDS011;8305;-33.882;151.134;2023-11-19T14:14:05;20.58;;;2.63;;
16391;SDS011;8305;-33.882;151.134;2023-11-19T14:16:36;13.13;;;1.95;;
16391;SDS011;8305;-33.882;151.134;2023-11-19T14:19:07;12.30;;;2.22;;
16391;SDS011;8305;-33.882;151.134;2023-11-19T14:21:41;11.98;;;2.20;;
16391;SDS011;8305;-33.882;151.134;2023-11-19T14:24:13;14.63;;;2.20;;
16391;SDS011;8305;-33.882;151.134;2023-11-19T14:26:46;16.02;;;2.80;;
16391;SDS011;8305;-33.882;151.134;2023-11-19T14:29:19;15.50;;;2.50;;
16391;SDS011;8305;-33.882;151.134;2023-11-19T14:31:52;11.00;;;2.10;;
16391;SDS011;8305;-33.882;151.134;2023-11-19T14:34:22;13.93;;;2.42;;
16391;SDS011;8305;-33.882;151.134;2023-11-19T14:36:54;15.73;;;2.47;;
16391;SDS011;8305;-33.882;151.134;2023-11-19T14:39:25;15.57;;;2.75;;
16391;SDS011;8305;-33.882;151.134;2023-11-19T14:41:57;14.35;;;2.50;;
16391;SDS011;8305;-33.882;151.134;2023-11-19T14:44:32;15.10;;;2.63;;
16391;SDS011;8305;-33.882;151.134;2023-11-19T14:47:03;16.23;;;2.92;;
16391;SDS011;8305;-33.882;151.134;2023-11-19T14:49:34;10.35;;;2.70;;